createdAt,value
2018-05-13T00:00:37.376Z,24.00
2018-05-13T00:03:04.900Z,24.00
2018-05-13T00:05:32.376Z,24.00
2018-05-13T00:07:59.857Z,24.00
2018-05-13T00:10:27.340Z,24.00
2018-05-13T00:12:54.876Z,23.90
2018-05-13T00:15:22.377Z,24.00
2018-05-13T00:17:49.852Z,24.00
2018-05-13T00:20:17.333Z,24.00
2018-05-13T00:22:44.800Z,24.00
2018-05-13T00:25:12.333Z,24.00
2018-05-13T00:27:39.821Z,24.00
2018-05-13T00:30:07.368Z,23.90
2018-05-13T00:32:34.868Z,24.00
2018-05-13T00:35:02.394Z,24.00
2018-05-13T00:37:30.003Z,24.00
2018-05-13T00:39:57.488Z,24.00
2018-05-13T00:42:25.043Z,23.90
2018-05-13T00:44:52.602Z,23.90
2018-05-13T00:47:20.100Z,23.90
2018-05-13T00:49:47.687Z,23.90
2018-05-13T00:52:15.200Z,23.90
2018-05-13T00:54:59.505Z,23.90
2018-05-13T00:57:27.123Z,23.90
2018-05-13T00:59:55.360Z,23.90
2018-05-13T01:02:22.854Z,23.90
2018-05-13T01:04:50.381Z,23.90
2018-05-13T01:07:17.905Z,23.90
2018-05-13T01:09:45.403Z,23.90
2018-05-13T01:12:13.645Z,23.80
2018-05-13T01:14:41.199Z,23.80
2018-05-13T01:17:08.788Z,23.90
2018-05-13T01:19:36.260Z,23.90
2018-05-13T01:22:03.729Z,23.90
2018-05-13T01:24:31.213Z,23.90
2018-05-13T01:26:58.689Z,23.90
2018-05-13T01:29:27.045Z,23.90
2018-05-13T01:31:54.613Z,23.90
2018-05-13T01:34:22.084Z,23.90
2018-05-13T01:36:49.656Z,23.90
2018-05-13T01:39:17.128Z,23.90
2018-05-13T01:41:44.773Z,23.80
2018-05-13T01:44:12.241Z,23.80
2018-05-13T01:46:39.712Z,23.80
2018-05-13T01:49:07.223Z,23.80
2018-05-13T01:51:34.705Z,23.80
2018-05-13T01:54:02.181Z,23.80
2018-05-13T01:56:29.716Z,23.80
2018-05-13T01:58:57.184Z,23.80
2018-05-13T02:01:24.656Z,23.80
2018-05-13T02:03:52.219Z,23.70
2018-05-13T02:06:19.908Z,23.70
2018-05-13T02:08:47.349Z,23.80
2018-05-13T02:11:14.825Z,23.80
2018-05-13T02:13:42.321Z,23.80
2018-05-13T02:16:09.805Z,23.80
2018-05-13T02:18:37.272Z,23.80
2018-05-13T02:21:04.813Z,23.80
2018-05-13T02:23:32.385Z,23.80
2018-05-13T02:25:59.960Z,23.80
2018-05-13T02:28:27.455Z,23.80
2018-05-13T02:30:54.925Z,23.70
2018-05-13T02:33:22.486Z,23.80
2018-05-13T02:35:50.058Z,23.80
2018-05-13T02:38:17.524Z,23.80
2018-05-13T02:40:45.005Z,23.80
2018-05-13T02:43:12.561Z,23.80
2018-05-13T02:45:40.139Z,23.80
2018-05-13T02:48:07.714Z,23.80
2018-05-13T02:50:35.273Z,23.70
2018-05-13T02:53:02.769Z,23.80
2018-05-13T02:55:30.324Z,23.80
2018-05-13T02:57:57.797Z,23.80
2018-05-13T03:00:25.362Z,23.80
2018-05-13T03:02:52.837Z,23.80
2018-05-13T03:05:20.321Z,23.80
2018-05-13T03:07:47.812Z,23.70
2018-05-13T03:10:15.346Z,23.80
2018-05-13T03:12:42.829Z,23.70
2018-05-13T03:15:10.389Z,23.70
2018-05-13T03:17:37.875Z,23.80
2018-05-13T03:20:05.433Z,23.70
2018-05-13T03:22:32.913Z,23.80
2018-05-13T03:25:00.473Z,23.80
2018-05-13T03:27:28.032Z,23.80
2018-05-13T03:29:55.501Z,23.70
2018-05-13T03:32:22.985Z,23.70
2018-05-13T03:34:50.464Z,23.80
2018-05-13T03:37:17.937Z,23.80
2018-05-13T03:39:45.492Z,23.80
2018-05-13T03:42:12.981Z,23.70
2018-05-13T03:44:40.448Z,23.70
2018-05-13T03:47:07.976Z,23.70
2018-05-13T03:49:35.468Z,23.70
2018-05-13T03:52:02.953Z,23.70
2018-05-13T03:54:30.524Z,23.70
2018-05-13T03:56:58.093Z,23.70
2018-05-13T03:59:25.582Z,23.70
2018-05-13T04:01:53.053Z,23.70
2018-05-13T04:04:20.530Z,23.70
2018-05-13T04:06:48.015Z,23.70
2018-05-13T04:09:27.525Z,23.70
2018-05-13T04:12:07.080Z,23.70
2018-05-13T04:14:46.644Z,23.70
2018-05-13T04:17:14.132Z,23.70
2018-05-13T04:19:41.614Z,23.60
2018-05-13T04:22:09.092Z,23.60
2018-05-13T04:24:36.960Z,23.60
2018-05-13T04:27:04.427Z,23.60
2018-05-13T04:29:31.971Z,23.60
2018-05-13T04:31:59.452Z,23.70
2018-05-13T04:34:27.041Z,23.70
2018-05-13T04:36:54.498Z,23.70
2018-05-13T04:39:22.061Z,23.70
2018-05-13T04:41:49.597Z,23.60
2018-05-13T04:44:17.921Z,23.70
2018-05-13T04:46:45.489Z,23.70
2018-05-13T04:49:13.126Z,23.60
2018-05-13T04:51:40.655Z,23.60
2018-05-13T04:54:08.176Z,23.60
2018-05-13T04:56:35.672Z,23.70
2018-05-13T04:59:03.175Z,23.70
2018-05-13T05:01:30.652Z,23.60
2018-05-13T05:03:58.189Z,23.60
2018-05-13T05:06:25.761Z,23.60
2018-05-13T05:08:53.341Z,23.60
2018-05-13T05:11:20.916Z,23.60
2018-05-13T05:13:48.413Z,23.60
2018-05-13T05:16:15.880Z,23.60
2018-05-13T05:18:43.349Z,23.60
2018-05-13T05:21:10.895Z,23.60
2018-05-13T05:23:38.466Z,23.70
2018-05-13T05:26:05.962Z,23.70
2018-05-13T05:28:33.507Z,23.70
2018-05-13T05:31:00.993Z,23.70
2018-05-13T05:33:28.546Z,23.70
2018-05-13T05:35:56.021Z,23.70
2018-05-13T05:38:23.593Z,23.70
2018-05-13T05:40:51.158Z,23.70
2018-05-13T05:43:18.657Z,23.70
2018-05-13T05:45:46.144Z,23.70
2018-05-13T05:48:13.621Z,23.70
2018-05-13T05:50:41.101Z,23.70
2018-05-13T05:53:09.372Z,23.70
2018-05-13T05:55:36.913Z,23.70
2018-05-13T05:58:04.556Z,23.70
2018-05-13T06:00:32.877Z,23.70
2018-05-13T06:03:00.349Z,23.70
2018-05-13T06:05:27.900Z,23.70
2018-05-13T06:07:55.481Z,23.70
2018-05-13T06:10:22.967Z,23.70
2018-05-13T06:12:50.537Z,23.70
2018-05-13T06:15:18.012Z,23.70
2018-05-13T06:17:45.493Z,23.70
2018-05-13T06:20:13.000Z,23.70
2018-05-13T06:22:40.491Z,23.70
2018-05-13T06:25:08.001Z,23.70
2018-05-13T06:27:35.552Z,23.70
2018-05-13T06:30:03.133Z,23.70
2018-05-13T06:32:30.700Z,23.70
2018-05-13T06:34:58.185Z,23.70
2018-05-13T06:37:25.741Z,23.80
2018-05-13T06:39:53.225Z,23.80
2018-05-13T06:42:20.776Z,23.80
2018-05-13T06:44:48.244Z,23.80
2018-05-13T06:47:15.845Z,23.80
2018-05-13T06:49:43.345Z,23.70
2018-05-13T06:52:11.696Z,23.70
2018-05-13T06:54:39.202Z,23.70
2018-05-13T06:57:08.275Z,23.70
2018-05-13T06:59:35.750Z,23.70
2018-05-13T07:02:03.252Z,23.70
2018-05-13T07:04:31.581Z,23.80
2018-05-13T07:06:59.161Z,23.70
2018-05-13T07:09:26.653Z,23.70
2018-05-13T07:11:54.137Z,23.80
2018-05-13T07:14:21.608Z,23.80
2018-05-13T07:16:49.076Z,23.70
2018-05-13T07:19:16.589Z,23.80
2018-05-13T07:21:44.094Z,23.80
2018-05-13T07:24:11.657Z,23.80
2018-05-13T07:26:39.171Z,23.80
2018-05-13T07:29:06.665Z,23.80
2018-05-13T07:31:34.186Z,23.80
2018-05-13T07:34:01.665Z,23.80
2018-05-13T07:36:29.156Z,23.80
2018-05-13T07:38:57.398Z,23.90
2018-05-13T07:41:24.980Z,23.80
2018-05-13T07:43:52.448Z,23.90
2018-05-13T07:46:20.039Z,23.90
2018-05-13T07:48:47.516Z,23.90
2018-05-13T07:51:14.984Z,23.90
2018-05-13T07:53:42.539Z,23.90
2018-05-13T07:56:10.093Z,23.90
2018-05-13T07:58:37.566Z,23.90
2018-05-13T08:01:05.217Z,23.90
2018-05-13T08:03:33.436Z,23.90
2018-05-13T08:06:00.989Z,23.90
2018-05-13T08:08:28.561Z,23.90
2018-05-13T08:10:56.889Z,23.90
2018-05-13T08:13:24.430Z,24.00
2018-05-13T08:15:52.007Z,24.00
2018-05-13T08:18:19.473Z,24.00
2018-05-13T08:20:46.957Z,24.00
2018-05-13T08:23:14.641Z,24.10
2018-05-13T08:25:42.180Z,24.00
2018-05-13T08:28:09.690Z,24.10
2018-05-13T08:30:37.259Z,24.10
2018-05-13T08:33:04.725Z,24.10
2018-05-13T08:35:32.197Z,24.10
2018-05-13T08:37:59.745Z,24.10
2018-05-13T08:40:27.228Z,24.10
2018-05-13T08:42:54.789Z,24.10
2018-05-13T08:45:22.264Z,24.10
2018-05-13T08:47:49.748Z,24.10
2018-05-13T08:50:17.307Z,24.10
2018-05-13T08:52:44.778Z,24.10
2018-05-13T08:55:12.272Z,24.20
2018-05-13T08:57:39.787Z,24.10
2018-05-13T09:00:07.351Z,24.20
2018-05-13T09:02:35.605Z,24.30
2018-05-13T09:05:03.177Z,24.30
2018-05-13T09:07:31.529Z,24.30
2018-05-13T09:09:59.001Z,24.30
2018-05-13T09:12:26.477Z,24.40
2018-05-13T09:14:53.953Z,24.40
2018-05-13T09:17:21.424Z,24.40
2018-05-13T09:19:48.913Z,24.40
2018-05-13T09:22:16.469Z,24.40
2018-05-13T09:24:44.004Z,24.50
2018-05-13T09:27:12.333Z,24.50
2018-05-13T09:29:39.899Z,24.50
2018-05-13T09:32:07.573Z,24.50
2018-05-13T09:34:35.084Z,24.50
2018-05-13T09:37:02.703Z,24.60
2018-05-13T09:39:30.203Z,24.60
2018-05-13T09:41:57.669Z,24.60
2018-05-13T09:44:25.142Z,24.70
2018-05-13T09:46:52.642Z,24.70
2018-05-13T09:49:20.181Z,24.70
2018-05-13T09:51:47.766Z,24.80
2018-05-13T09:54:15.344Z,24.80
2018-05-13T09:56:42.849Z,24.80
2018-05-13T09:59:11.109Z,24.80
2018-05-13T10:01:38.625Z,24.80
2018-05-13T10:04:06.716Z,24.80
2018-05-13T10:06:34.184Z,24.80
2018-05-13T10:09:01.661Z,24.90
2018-05-13T10:11:29.160Z,24.90
2018-05-13T10:13:56.714Z,24.90
2018-05-13T10:16:24.188Z,25.00
2018-05-13T10:18:51.825Z,25.00
2018-05-13T10:21:19.393Z,25.00
2018-05-13T10:23:47.718Z,25.10
2018-05-13T10:26:15.426Z,25.10
2018-05-13T10:28:42.909Z,25.10
2018-05-13T10:31:10.449Z,25.10
2018-05-13T10:33:38.104Z,25.10
2018-05-13T10:36:05.689Z,25.10
2018-05-13T10:38:33.165Z,25.10
2018-05-13T10:41:00.660Z,25.20
2018-05-13T10:43:28.188Z,25.20
2018-05-13T10:45:55.658Z,25.20
2018-05-13T10:48:23.145Z,25.20
2018-05-13T10:50:50.612Z,25.30
2018-05-13T10:53:18.134Z,25.30
2018-05-13T10:55:46.370Z,25.30
2018-05-13T10:58:13.979Z,25.30
2018-05-13T11:00:41.511Z,25.30
2018-05-13T11:03:09.018Z,25.30
2018-05-13T11:05:36.519Z,25.40
2018-05-13T11:08:04.902Z,25.40
2018-05-13T11:10:33.242Z,25.40
2018-05-13T11:13:00.780Z,25.40
2018-05-13T11:15:29.335Z,25.60
2018-05-13T11:17:56.865Z,25.50
2018-05-13T11:20:24.353Z,25.60
2018-05-13T11:22:51.828Z,25.60
2018-05-13T11:25:19.493Z,25.60
2018-05-13T11:27:46.973Z,25.70
2018-05-13T11:30:14.654Z,25.70
2018-05-13T11:32:42.253Z,25.80
2018-05-13T11:35:09.998Z,25.80
2018-05-13T11:37:37.648Z,25.90
2018-05-13T11:40:05.125Z,25.90
2018-05-13T11:42:32.634Z,25.90
2018-05-13T11:45:00.105Z,26.00
2018-05-13T11:47:27.584Z,26.00
2018-05-13T11:49:55.933Z,26.00
2018-05-13T11:52:23.517Z,26.00
2018-05-13T11:54:51.053Z,26.10
2018-05-13T11:57:18.547Z,26.00
2018-05-13T11:59:46.065Z,26.10
2018-05-13T12:02:13.600Z,26.00
2018-05-13T12:04:41.086Z,26.00
2018-05-13T12:07:08.721Z,26.10
2018-05-13T12:09:36.259Z,26.10
2018-05-13T12:12:03.951Z,26.00
2018-05-13T12:14:32.200Z,26.10
2018-05-13T12:16:59.694Z,26.10
2018-05-13T12:19:27.933Z,26.10
2018-05-13T12:21:55.425Z,26.10
2018-05-13T12:24:23.787Z,26.10
2018-05-13T12:26:51.257Z,26.00
2018-05-13T12:29:18.832Z,26.10
2018-05-13T12:31:46.405Z,26.20
2018-05-13T12:34:13.933Z,26.10
2018-05-13T12:36:42.260Z,26.10
2018-05-13T12:39:11.047Z,26.10
2018-05-13T12:41:38.867Z,26.20
2018-05-13T12:44:06.751Z,26.20
2018-05-13T12:46:34.290Z,26.10
2018-05-13T12:49:01.779Z,26.10
2018-05-13T12:51:29.253Z,26.20
2018-05-13T12:53:56.745Z,26.10
2018-05-13T12:56:25.088Z,26.30
2018-05-13T12:58:52.473Z,26.30
2018-05-13T13:01:19.969Z,26.20
2018-05-13T13:03:47.560Z,26.20
2018-05-13T13:06:15.075Z,26.10
2018-05-13T13:08:42.563Z,26.10
2018-05-13T13:11:10.075Z,26.10
2018-05-13T13:13:37.570Z,26.10
2018-05-13T13:16:05.068Z,26.10
2018-05-13T13:18:32.706Z,26.20
2018-05-13T13:21:00.969Z,26.10
2018-05-13T13:23:28.432Z,26.00
2018-05-13T13:25:55.999Z,26.00
2018-05-13T13:28:23.508Z,26.00
2018-05-13T13:30:51.754Z,26.00
2018-05-13T13:33:19.224Z,26.00
2018-05-13T13:35:46.715Z,26.00
2018-05-13T13:38:14.991Z,26.00
2018-05-13T13:40:42.543Z,26.00
2018-05-13T13:43:10.166Z,26.00
2018-05-13T13:45:37.801Z,26.00
2018-05-13T13:48:05.338Z,26.00
2018-05-13T13:50:32.816Z,26.00
2018-05-13T13:53:00.291Z,26.00
2018-05-13T13:55:27.787Z,26.00
2018-05-13T13:57:55.407Z,26.00
2018-05-13T14:00:22.953Z,26.00
2018-05-13T14:02:50.454Z,26.00
2018-05-13T14:05:17.958Z,25.90
2018-05-13T14:07:45.517Z,26.00
2018-05-13T14:10:13.070Z,26.00
2018-05-13T14:12:41.344Z,26.00
2018-05-13T14:15:08.892Z,25.90
2018-05-13T14:17:36.483Z,26.00
2018-05-13T14:20:04.764Z,26.00
2018-05-13T14:22:32.224Z,25.90
2018-05-13T14:24:59.697Z,26.00
2018-05-13T14:27:27.249Z,26.00
2018-05-13T14:29:54.818Z,26.00
2018-05-13T14:32:22.349Z,25.90
2018-05-13T14:34:50.174Z,25.90
2018-05-13T14:37:17.874Z,25.90
2018-05-13T14:39:45.944Z,25.90
2018-05-13T14:42:14.560Z,26.00
2018-05-13T14:44:42.406Z,25.90
2018-05-13T14:47:10.457Z,25.90
2018-05-13T14:49:38.961Z,25.80
2018-05-13T14:52:06.689Z,25.80
2018-05-13T14:54:34.942Z,25.80
2018-05-13T14:57:02.697Z,25.80
2018-05-13T14:59:30.256Z,25.80
2018-05-13T15:01:57.832Z,25.80
2018-05-13T15:04:25.609Z,25.80
2018-05-13T15:06:53.833Z,25.80
2018-05-13T15:09:22.152Z,25.80
2018-05-13T15:11:48.883Z,25.80
2018-05-13T15:14:16.365Z,25.80
2018-05-13T15:16:43.857Z,25.80
2018-05-13T15:19:11.344Z,25.80
2018-05-13T15:21:39.153Z,25.80
2018-05-13T15:24:07.550Z,25.70
2018-05-13T15:26:36.371Z,25.80
2018-05-13T15:29:04.684Z,25.80
2018-05-13T15:31:32.266Z,25.80
2018-05-13T15:33:59.964Z,25.70
2018-05-13T15:36:27.586Z,25.70
2018-05-13T15:38:55.764Z,25.70
2018-05-13T15:41:23.404Z,25.80
2018-05-13T15:43:51.636Z,25.70
2018-05-13T15:46:19.192Z,25.70
2018-05-13T15:48:46.778Z,25.70
2018-05-13T15:51:14.360Z,25.70
2018-05-13T15:53:41.916Z,25.80
2018-05-13T15:56:09.397Z,25.70
2018-05-13T15:58:36.893Z,25.70
2018-05-13T16:01:04.517Z,25.60
2018-05-13T16:03:32.025Z,25.70
2018-05-13T16:05:59.512Z,25.60
2018-05-13T16:08:27.760Z,25.60
2018-05-13T16:10:55.412Z,25.60
2018-05-13T16:13:22.909Z,25.60
2018-05-13T16:15:50.385Z,25.60
2018-05-13T16:18:17.873Z,25.60
2018-05-13T16:20:45.340Z,25.60
2018-05-13T16:23:12.884Z,25.60
2018-05-13T16:25:40.362Z,25.60
2018-05-13T16:28:07.857Z,25.50
2018-05-13T16:30:35.398Z,25.50
2018-05-13T16:33:03.046Z,25.50
2018-05-13T16:35:31.305Z,25.50
2018-05-13T16:37:59.549Z,25.50
2018-05-13T16:40:27.021Z,25.50
2018-05-13T16:42:54.729Z,25.50
2018-05-13T16:45:22.205Z,25.40
2018-05-13T16:47:49.730Z,25.40
2018-05-13T16:50:17.197Z,25.40
2018-05-13T16:52:44.677Z,25.40
2018-05-13T16:55:12.434Z,25.40
2018-05-13T16:57:40.040Z,25.40
2018-05-13T17:00:07.521Z,25.40
2018-05-13T17:02:35.099Z,25.40
2018-05-13T17:05:02.528Z,25.30
2018-05-13T17:07:30.004Z,25.30
2018-05-13T17:09:57.564Z,25.30
2018-05-13T17:12:25.142Z,25.30
2018-05-13T17:14:52.617Z,25.30
2018-05-13T17:17:20.292Z,25.30
2018-05-13T17:19:47.757Z,25.30
2018-05-13T17:22:15.238Z,25.20
2018-05-13T17:24:42.738Z,25.20
2018-05-13T17:27:10.212Z,25.20
2018-05-13T17:29:38.582Z,25.20
2018-05-13T17:32:06.136Z,25.20
2018-05-13T17:34:33.596Z,25.10
2018-05-13T17:37:01.069Z,25.10
2018-05-13T17:39:28.622Z,25.10
2018-05-13T17:41:56.109Z,25.10
2018-05-13T17:44:23.686Z,25.10
2018-05-13T17:46:51.297Z,25.10
2018-05-13T17:49:18.881Z,25.10
2018-05-13T17:51:46.351Z,25.10
2018-05-13T17:54:13.869Z,25.10
2018-05-13T17:56:41.463Z,25.10
2018-05-13T17:59:09.050Z,25.10
2018-05-13T18:01:36.546Z,25.10
2018-05-13T18:04:04.781Z,25.00
2018-05-13T18:06:32.249Z,25.00
2018-05-13T18:08:59.729Z,25.00
2018-05-13T18:11:27.289Z,25.00
2018-05-13T18:13:54.877Z,25.00
2018-05-13T18:16:22.372Z,25.00
2018-05-13T18:18:49.860Z,25.00
2018-05-13T18:21:18.097Z,24.90
2018-05-13T18:23:45.621Z,24.90
2018-05-13T18:26:13.861Z,24.90
2018-05-13T18:28:41.429Z,24.90
2018-05-13T18:31:09.049Z,24.90
2018-05-13T18:33:36.493Z,24.90
2018-05-13T18:36:03.965Z,24.90
2018-05-13T18:38:31.629Z,24.90
2018-05-13T18:40:59.180Z,24.90
2018-05-13T18:43:26.654Z,24.90
2018-05-13T18:45:54.220Z,24.90
2018-05-13T18:48:21.724Z,24.90
2018-05-13T18:50:49.192Z,24.90
2018-05-13T18:53:16.739Z,24.80
2018-05-13T18:55:44.299Z,24.80
2018-05-13T18:58:11.889Z,24.80
2018-05-13T19:00:39.465Z,24.80
2018-05-13T19:03:07.031Z,24.80
2018-05-13T19:05:34.497Z,24.80
2018-05-13T19:08:02.057Z,24.80
2018-05-13T19:10:29.528Z,24.80
2018-05-13T19:12:57.108Z,24.80
2018-05-13T19:15:24.681Z,24.80
2018-05-13T19:17:52.157Z,24.80
2018-05-13T19:20:19.666Z,24.80
2018-05-13T19:22:47.132Z,24.80
2018-05-13T19:25:14.621Z,24.80
2018-05-13T19:27:42.944Z,24.70
2018-05-13T19:30:10.437Z,24.70
2018-05-13T19:32:37.980Z,24.70
2018-05-13T19:35:05.649Z,24.70
2018-05-13T19:37:33.968Z,24.70
2018-05-13T19:40:01.451Z,24.70
2018-05-13T19:42:28.913Z,24.70
2018-05-13T19:44:56.464Z,24.70
2018-05-13T19:47:23.963Z,24.70
2018-05-13T19:49:51.424Z,24.70
2018-05-13T19:52:18.913Z,24.70
2018-05-13T19:54:46.460Z,24.70
2018-05-13T19:57:14.247Z,24.70
2018-05-13T19:59:41.734Z,24.70
2018-05-13T20:02:09.224Z,24.70
2018-05-13T20:04:37.565Z,24.70
2018-05-13T20:07:05.129Z,24.70
2018-05-13T20:09:32.701Z,24.70
2018-05-13T20:12:00.173Z,24.70
2018-05-13T20:14:27.745Z,24.70
2018-05-13T20:16:55.341Z,24.70
2018-05-13T20:19:22.825Z,24.70
2018-05-13T20:21:50.300Z,24.70
2018-05-13T20:24:17.830Z,24.70
2018-05-13T20:26:45.404Z,24.70
2018-05-13T20:29:12.873Z,24.70
2018-05-13T20:31:40.345Z,24.70
2018-05-13T20:34:08.041Z,24.70
2018-05-13T20:36:35.530Z,24.70
2018-05-13T20:39:03.011Z,24.60
2018-05-13T20:41:30.538Z,24.70
2018-05-13T20:43:58.012Z,24.60
2018-05-13T20:46:25.482Z,24.60
2018-05-13T20:48:53.022Z,24.60
2018-05-13T20:51:21.480Z,24.60
2018-05-13T20:53:48.903Z,24.60
2018-05-13T20:56:16.492Z,24.60
2018-05-13T20:58:44.054Z,24.60
2018-05-13T21:01:11.639Z,24.60
2018-05-13T21:03:39.178Z,24.60
2018-05-13T21:06:06.755Z,24.70
2018-05-13T21:08:34.322Z,24.60
2018-05-13T21:11:01.793Z,24.60
2018-05-13T21:13:29.261Z,24.60
2018-05-13T21:15:56.765Z,24.60
2018-05-13T21:18:24.236Z,24.60
2018-05-13T21:20:51.713Z,24.60
2018-05-13T21:23:19.276Z,24.60
2018-05-13T21:25:46.897Z,24.60
2018-05-13T21:28:14.631Z,24.60
2018-05-13T21:30:42.189Z,24.60
2018-05-13T21:33:09.679Z,24.70
2018-05-13T21:35:37.194Z,24.70
2018-05-13T21:38:04.795Z,24.70
2018-05-13T21:40:32.370Z,24.70
2018-05-13T21:42:59.982Z,24.70
2018-05-13T21:45:27.510Z,24.70
2018-05-13T21:47:55.077Z,24.70
2018-05-13T21:50:22.564Z,24.70
2018-05-13T21:52:50.033Z,24.70
2018-05-13T21:55:17.513Z,24.70
2018-05-13T21:57:45.068Z,24.70
2018-05-13T22:00:12.652Z,24.70
2018-05-13T22:02:40.213Z,24.80
2018-05-13T22:05:07.785Z,24.70
2018-05-13T22:07:35.353Z,24.70
2018-05-13T22:10:02.924Z,24.80
2018-05-13T22:12:30.392Z,24.70
2018-05-13T22:14:57.884Z,24.80
2018-05-13T22:17:25.390Z,24.80
2018-05-13T22:19:52.828Z,24.80
2018-05-13T22:22:20.305Z,24.80
2018-05-13T22:24:47.850Z,24.80
2018-05-13T22:27:15.521Z,24.80
2018-05-13T22:29:42.992Z,24.80
2018-05-13T22:32:10.464Z,24.80
2018-05-13T22:34:38.047Z,24.80
2018-05-13T22:37:05.597Z,24.80
2018-05-13T22:39:33.069Z,24.80
2018-05-13T22:42:00.649Z,24.80
2018-05-13T22:44:28.120Z,24.80
2018-05-13T22:46:55.697Z,24.80
2018-05-13T22:49:23.272Z,24.80
2018-05-13T22:51:50.833Z,24.80
2018-05-13T22:54:18.391Z,24.80
2018-05-13T22:56:46.704Z,24.80
2018-05-13T22:59:14.268Z,24.80
2018-05-13T23:01:41.844Z,24.80
2018-05-13T23:04:09.333Z,24.80
2018-05-13T23:06:36.845Z,24.80
2018-05-13T23:09:05.266Z,24.80
2018-05-13T23:11:32.744Z,24.80
2018-05-13T23:14:00.317Z,24.80
2018-05-13T23:16:27.780Z,24.80
2018-05-13T23:18:55.369Z,24.80
2018-05-13T23:21:22.877Z,24.80
2018-05-13T23:23:50.366Z,24.80
2018-05-13T23:26:18.704Z,24.90
2018-05-13T23:28:46.245Z,24.90
2018-05-13T23:31:14.553Z,24.90
2018-05-13T23:33:42.029Z,24.90
2018-05-13T23:36:09.546Z,24.90
2018-05-13T23:38:37.786Z,24.90
2018-05-13T23:41:05.336Z,24.90
2018-05-13T23:43:33.682Z,24.90
2018-05-13T23:46:01.148Z,24.90
2018-05-13T23:48:28.687Z,24.90
2018-05-13T23:50:56.157Z,24.90
2018-05-13T23:53:23.729Z,24.90
2018-05-13T23:55:51.192Z,24.90
2018-05-13T23:58:18.709Z,24.90
